sensor_id;sensor_type;location;lat;lon;timestamp;P1;durP1;ratioP1;P2;durP2;ratioP2
41709;SDS011;59402;48.396;-4.472;2023-02-15T00:01:31;22.00;;;9.48;;
41709;SDS011;59402;48.396;-4.472;2023-02-15T00:03:58;19.10;;;9.15;;
41709;SDS011;59402;48.396;-4.472;2023-02-15T00:06:24;22.20;;;10.07;;
41709;SDS011;59402;48.396;-4.472;2023-02-15T00:08:50;20.70;;;9.23;;
41709;SDS011;59402;48.396;-4.472;2023-02-15T00:11:17;21.85;;;9.63;;
41709;SDS011;59402;48.396;-4.472;2023-02-15T00:14:04;23.25;;;9.82;;
41709;SDS011;59402;48.396;-4.472;2023-02-15T00:16:38;20.05;;;9.20;;
41709;SDS011;59402;48.396;-4.472;2023-02-15T00:19:05;24.70;;;9.45;;
41709;SDS011;59402;48.396;-4.472;2023-02-15T00:21:31;22.02;;;9.88;;
41709;SDS011;59402;48.396;-4.472;2023-02-15T00:23:58;21.50;;;9.73;;
41709;SDS011;59402;48.396;-4.472;2023-02-15T00:26:25;26.88;;;10.05;;
41709;SDS011;59402;48.396;-4.472;2023-02-15T00:28:51;25.48;;;9.38;;
41709;SDS011;59402;48.396;-4.472;2023-02-15T00:31:18;25.73;;;10.65;;
41709;SDS011;59402;48.396;-4.472;2023-02-15T00:33:44;25.58;;;9.90;;
41709;SDS011;59402;48.396;-4.472;2023-02-15T00:36:10;19.70;;;9.82;;
41709;SDS011;59402;48.396;-4.472;2023-02-15T00:38:36;25.17;;;10.45;;
41709;SDS011;59402;48.396;-4.472;2023-02-15T00:41:03;22.88;;;9.55;;
41709;SDS011;59402;48.396;-4.472;2023-02-15T00:43:30;22.23;;;10.20;;
41709;SDS011;59402;48.396;-4.472;2023-02-15T00:45:56;23.25;;;9.93;;
41709;SDS011;59402;48.396;-4.472;2023-02-15T00:48:23;26.38;;;10.85;;
41709;SDS011;59402;48.396;-4.472;2023-02-15T00:50:49;20.70;;;11.18;;
41709;SDS011;59402;48.396;-4.472;2023-02-15T00:53:17;25.25;;;10.48;;
41709;SDS011;59402;48.396;-4.472;2023-02-15T00:55:43;21.65;;;10.25;;
41709;SDS011;59402;48.396;-4.472;2023-02-15T00:58:09;20.30;;;10.60;;
41709;SDS011;59402;48.396;-4.472;2023-02-15T01:00:35;19.57;;;10.83;;
41709;SDS011;59402;48.396;-4.472;2023-02-15T01:03:02;25.92;;;10.75;;
41709;SDS011;59402;48.396;-4.472;2023-02-15T01:05:28;24.88;;;11.38;;
41709;SDS011;59402;48.396;-4.472;2023-02-15T01:07:55;20.98;;;10.25;;
41709;SDS011;59402;48.396;-4.472;2023-02-15T01:10:21;25.60;;;9.88;;
41709;SDS011;59402;48.396;-4.472;2023-02-15T01:12:47;22.25;;;10.13;;
41709;SDS011;59402;48.396;-4.472;2023-02-15T01:15:13;20.77;;;10.05;;
41709;SDS011;59402;48.396;-4.472;2023-02-15T01:17:38;21.17;;;10.73;;
41709;SDS011;59402;48.396;-4.472;2023-02-15T01:20:05;23.70;;;10.52;;
41709;SDS011;59402;48.396;-4.472;2023-02-15T01:22:31;18.90;;;10.13;;
41709;SDS011;59402;48.396;-4.472;2023-02-15T01:24:57;20.88;;;10.40;;
41709;SDS011;59402;48.396;-4.472;2023-02-15T01:27:22;24.67;;;11.18;;
41709;SDS011;59402;48.396;-4.472;2023-02-15T01:29:48;26.38;;;10.55;;
41709;SDS011;59402;48.396;-4.472;2023-02-15T01:32:14;23.00;;;11.02;;
41709;SDS011;59402;48.396;-4.472;2023-02-15T01:37:07;16.85;;;9.57;;
41709;SDS011;59402;48.396;-4.472;2023-02-15T01:39:33;24.75;;;10.77;;
41709;SDS011;59402;48.396;-4.472;2023-02-15T01:41:59;28.50;;;10.43;;
41709;SDS011;59402;48.396;-4.472;2023-02-15T01:49:43;21.75;;;10.05;;
41709;SDS011;59402;48.396;-4.472;2023-02-15T01:52:10;18.80;;;10.93;;
41709;SDS011;59402;48.396;-4.472;2023-02-15T01:54:39;21.48;;;10.55;;
41709;SDS011;59402;48.396;-4.472;2023-02-15T01:57:08;25.02;;;11.45;;
41709;SDS011;59402;48.396;-4.472;2023-02-15T01:59:36;20.20;;;11.02;;
41709;SDS011;59402;48.396;-4.472;2023-02-15T02:02:03;22.30;;;11.23;;
41709;SDS011;59402;48.396;-4.472;2023-02-15T02:04:35;20.45;;;10.23;;
41709;SDS011;59402;48.396;-4.472;2023-02-15T02:07:12;21.75;;;10.85;;
41709;SDS011;59402;48.396;-4.472;2023-02-15T02:09:39;20.17;;;11.05;;
41709;SDS011;59402;48.396;-4.472;2023-02-15T02:12:05;20.35;;;10.57;;
41709;SDS011;59402;48.396;-4.472;2023-02-15T02:14:32;22.37;;;10.03;;
41709;SDS011;59402;48.396;-4.472;2023-02-15T02:42:24;19.75;;;11.15;;
41709;SDS011;59402;48.396;-4.472;2023-02-15T02:45:03;19.23;;;11.90;;
41709;SDS011;59402;48.396;-4.472;2023-02-15T02:47:55;21.35;;;12.10;;
41709;SDS011;59402;48.396;-4.472;2023-02-15T02:50:28;25.95;;;12.10;;
41709;SDS011;59402;48.396;-4.472;2023-02-15T02:52:56;22.35;;;12.13;;
41709;SDS011;59402;48.396;-4.472;2023-02-15T03:00:57;23.00;;;12.55;;
41709;SDS011;59402;48.396;-4.472;2023-02-15T03:06:12;23.60;;;12.75;;
41709;SDS011;59402;48.396;-4.472;2023-02-15T03:08:46;21.77;;;13.73;;
41709;SDS011;59402;48.396;-4.472;2023-02-15T03:11:14;24.70;;;13.15;;
41709;SDS011;59402;48.396;-4.472;2023-02-15T03:13:40;26.70;;;13.85;;
41709;SDS011;59402;48.396;-4.472;2023-02-15T03:16:06;22.40;;;13.93;;
41709;SDS011;59402;48.396;-4.472;2023-02-15T03:19:14;24.77;;;14.25;;
41709;SDS011;59402;48.396;-4.472;2023-02-15T03:21:49;24.60;;;14.25;;
41709;SDS011;59402;48.396;-4.472;2023-02-15T03:24:31;28.58;;;14.07;;
41709;SDS011;59402;48.396;-4.472;2023-02-15T03:27:00;28.42;;;15.10;;
41709;SDS011;59402;48.396;-4.472;2023-02-15T03:29:28;25.75;;;14.93;;
41709;SDS011;59402;48.396;-4.472;2023-02-15T03:31:56;22.37;;;14.17;;
41709;SDS011;59402;48.396;-4.472;2023-02-15T03:34:24;24.73;;;14.98;;
41709;SDS011;59402;48.396;-4.472;2023-02-15T03:44:58;25.33;;;13.73;;
41709;SDS011;59402;48.396;-4.472;2023-02-15T03:47:36;28.92;;;15.05;;
41709;SDS011;59402;48.396;-4.472;2023-02-15T03:50:11;22.85;;;14.30;;
41709;SDS011;59402;48.396;-4.472;2023-02-15T03:53:06;25.60;;;16.10;;
41709;SDS011;59402;48.396;-4.472;2023-02-15T03:55:34;23.60;;;15.00;;
41709;SDS011;59402;48.396;-4.472;2023-02-15T03:58:01;25.38;;;15.88;;
41709;SDS011;59402;48.396;-4.472;2023-02-15T04:00:48;23.23;;;16.02;;
41709;SDS011;59402;48.396;-4.472;2023-02-15T04:03:39;30.80;;;16.55;;
41709;SDS011;59402;48.396;-4.472;2023-02-15T04:06:06;24.00;;;15.85;;
41709;SDS011;59402;48.396;-4.472;2023-02-15T04:08:32;24.05;;;15.57;;
41709;SDS011;59402;48.396;-4.472;2023-02-15T04:11:16;32.22;;;16.40;;
41709;SDS011;59402;48.396;-4.472;2023-02-15T04:13:42;29.92;;;15.77;;
41709;SDS011;59402;48.396;-4.472;2023-02-15T04:16:08;34.40;;;17.23;;
41709;SDS011;59402;48.396;-4.472;2023-02-15T04:18:38;25.20;;;17.02;;
41709;SDS011;59402;48.396;-4.472;2023-02-15T04:21:24;31.38;;;16.77;;
41709;SDS011;59402;48.396;-4.472;2023-02-15T04:24:09;26.60;;;16.52;;
41709;SDS011;59402;48.396;-4.472;2023-02-15T04:26:54;27.50;;;16.50;;
41709;SDS011;59402;48.396;-4.472;2023-02-15T04:29:21;28.58;;;17.35;;
41709;SDS011;59402;48.396;-4.472;2023-02-15T04:31:48;32.38;;;17.98;;
41709;SDS011;59402;48.396;-4.472;2023-02-15T04:34:14;35.17;;;19.27;;
41709;SDS011;59402;48.396;-4.472;2023-02-15T04:36:41;28.75;;;17.35;;
41709;SDS011;59402;48.396;-4.472;2023-02-15T04:39:07;30.00;;;17.77;;
41709;SDS011;59402;48.396;-4.472;2023-02-15T04:41:34;28.67;;;18.10;;
41709;SDS011;59402;48.396;-4.472;2023-02-15T04:44:01;33.03;;;18.88;;
41709;SDS011;59402;48.396;-4.472;2023-02-15T04:46:27;28.33;;;18.40;;
41709;SDS011;59402;48.396;-4.472;2023-02-15T04:48:53;26.75;;;17.30;;
41709;SDS011;59402;48.396;-4.472;2023-02-15T04:51:19;29.38;;;18.23;;
41709;SDS011;59402;48.396;-4.472;2023-02-15T04:53:45;26.67;;;17.23;;
41709;SDS011;59402;48.396;-4.472;2023-02-15T04:56:11;29.25;;;19.55;;
41709;SDS011;59402;48.396;-4.472;2023-02-15T04:58:36;31.00;;;19.10;;
41709;SDS011;59402;48.396;-4.472;2023-02-15T05:01:06;33.10;;;19.63;;
41709;SDS011;59402;48.396;-4.472;2023-02-15T05:03:32;28.30;;;18.30;;
41709;SDS011;59402;48.396;-4.472;2023-02-15T05:05:58;30.08;;;18.92;;
41709;SDS011;59402;48.396;-4.472;2023-02-15T05:08:23;36.17;;;20.10;;
41709;SDS011;59402;48.396;-4.472;2023-02-15T05:10:49;35.35;;;20.00;;
41709;SDS011;59402;48.396;-4.472;2023-02-15T05:13:15;32.75;;;19.45;;
41709;SDS011;59402;48.396;-4.472;2023-02-15T05:15:41;28.83;;;19.67;;
41709;SDS011;59402;48.396;-4.472;2023-02-15T05:18:11;35.10;;;20.50;;
41709;SDS011;59402;48.396;-4.472;2023-02-15T05:20:36;35.60;;;20.92;;
41709;SDS011;59402;48.396;-4.472;2023-02-15T05:23:02;30.73;;;19.75;;
41709;SDS011;59402;48.396;-4.472;2023-02-15T05:25:28;35.53;;;20.25;;
41709;SDS011;59402;48.396;-4.472;2023-02-15T05:28:12;34.15;;;20.98;;
41709;SDS011;59402;48.396;-4.472;2023-02-15T05:30:44;31.75;;;20.27;;
41709;SDS011;59402;48.396;-4.472;2023-02-15T05:33:13;36.05;;;21.60;;
41709;SDS011;59402;48.396;-4.472;2023-02-15T05:35:38;33.92;;;20.67;;
41709;SDS011;59402;48.396;-4.472;2023-02-15T05:38:04;30.63;;;21.17;;
41709;SDS011;59402;48.396;-4.472;2023-02-15T05:40:30;39.15;;;21.48;;
41709;SDS011;59402;48.396;-4.472;2023-02-15T05:42:56;35.78;;;20.20;;
41709;SDS011;59402;48.396;-4.472;2023-02-15T05:45:22;30.40;;;20.25;;
41709;SDS011;59402;48.396;-4.472;2023-02-15T05:47:48;32.75;;;20.13;;
41709;SDS011;59402;48.396;-4.472;2023-02-15T05:50:13;36.80;;;20.15;;
41709;SDS011;59402;48.396;-4.472;2023-02-15T05:52:39;31.00;;;20.20;;
41709;SDS011;59402;48.396;-4.472;2023-02-15T05:55:05;32.72;;;21.08;;
41709;SDS011;59402;48.396;-4.472;2023-02-15T05:57:32;36.28;;;21.20;;
41709;SDS011;59402;48.396;-4.472;2023-02-15T05:59:58;33.97;;;20.42;;
41709;SDS011;59402;48.396;-4.472;2023-02-15T06:02:23;30.27;;;20.27;;
41709;SDS011;59402;48.396;-4.472;2023-02-15T06:04:49;31.35;;;20.05;;
41709;SDS011;59402;48.396;-4.472;2023-02-15T06:07:15;25.73;;;18.73;;
41709;SDS011;59402;48.396;-4.472;2023-02-15T06:09:40;30.80;;;20.63;;
41709;SDS011;59402;48.396;-4.472;2023-02-15T06:12:06;28.58;;;20.55;;
41709;SDS011;59402;48.396;-4.472;2023-02-15T06:14:32;35.80;;;21.75;;
41709;SDS011;59402;48.396;-4.472;2023-02-15T06:16:58;37.67;;;21.35;;
41709;SDS011;59402;48.396;-4.472;2023-02-15T06:19:23;33.95;;;22.00;;
41709;SDS011;59402;48.396;-4.472;2023-02-15T06:21:50;39.88;;;21.55;;
41709;SDS011;59402;48.396;-4.472;2023-02-15T06:24:15;36.85;;;21.70;;
41709;SDS011;59402;48.396;-4.472;2023-02-15T06:26:41;34.75;;;22.17;;
41709;SDS011;59402;48.396;-4.472;2023-02-15T06:29:07;38.40;;;22.60;;
41709;SDS011;59402;48.396;-4.472;2023-02-15T06:31:32;38.72;;;22.67;;
41709;SDS011;59402;48.396;-4.472;2023-02-15T06:33:58;32.55;;;21.98;;
41709;SDS011;59402;48.396;-4.472;2023-02-15T06:36:29;42.63;;;23.60;;
41709;SDS011;59402;48.396;-4.472;2023-02-15T06:38:56;35.22;;;23.20;;
41709;SDS011;59402;48.396;-4.472;2023-02-15T06:41:21;34.97;;;22.90;;
41709;SDS011;59402;48.396;-4.472;2023-02-15T06:43:48;36.05;;;22.10;;
41709;SDS011;59402;48.396;-4.472;2023-02-15T06:46:14;37.05;;;22.20;;
41709;SDS011;59402;48.396;-4.472;2023-02-15T06:48:41;33.92;;;22.83;;
41709;SDS011;59402;48.396;-4.472;2023-02-15T06:51:07;41.92;;;22.50;;
41709;SDS011;59402;48.396;-4.472;2023-02-15T06:53:32;39.67;;;23.30;;
41709;SDS011;59402;48.396;-4.472;2023-02-15T06:56:02;37.95;;;23.20;;
41709;SDS011;59402;48.396;-4.472;2023-02-15T06:58:31;34.75;;;21.58;;
41709;SDS011;59402;48.396;-4.472;2023-02-15T07:00:58;34.30;;;22.50;;
41709;SDS011;59402;48.396;-4.472;2023-02-15T07:03:24;40.67;;;22.92;;
41709;SDS011;59402;48.396;-4.472;2023-02-15T07:05:53;37.67;;;22.80;;
41709;SDS011;59402;48.396;-4.472;2023-02-15T07:08:24;39.10;;;23.10;;
41709;SDS011;59402;48.396;-4.472;2023-02-15T07:10:50;38.93;;;22.53;;
41709;SDS011;59402;48.396;-4.472;2023-02-15T07:13:17;37.67;;;22.33;;
41709;SDS011;59402;48.396;-4.472;2023-02-15T07:15:43;35.13;;;22.38;;
41709;SDS011;59402;48.396;-4.472;2023-02-15T07:18:10;37.90;;;23.95;;
41709;SDS011;59402;48.396;-4.472;2023-02-15T07:20:36;37.90;;;23.15;;
41709;SDS011;59402;48.396;-4.472;2023-02-15T07:23:02;35.03;;;22.48;;
41709;SDS011;59402;48.396;-4.472;2023-02-15T07:25:29;44.42;;;24.30;;
41709;SDS011;59402;48.396;-4.472;2023-02-15T07:27:59;36.38;;;22.33;;
41709;SDS011;59402;48.396;-4.472;2023-02-15T07:30:26;38.42;;;24.38;;
41709;SDS011;59402;48.396;-4.472;2023-02-15T07:32:58;39.05;;;23.55;;
41709;SDS011;59402;48.396;-4.472;2023-02-15T07:38:15;42.60;;;25.08;;
41709;SDS011;59402;48.396;-4.472;2023-02-15T07:40:41;41.63;;;24.25;;
41709;SDS011;59402;48.396;-4.472;2023-02-15T07:43:07;40.58;;;22.80;;
41709;SDS011;59402;48.396;-4.472;2023-02-15T07:45:33;37.45;;;24.88;;
41709;SDS011;59402;48.396;-4.472;2023-02-15T07:48:02;38.80;;;23.88;;
41709;SDS011;59402;48.396;-4.472;2023-02-15T07:50:28;40.50;;;24.58;;
41709;SDS011;59402;48.396;-4.472;2023-02-15T07:52:54;40.72;;;23.35;;
41709;SDS011;59402;48.396;-4.472;2023-02-15T07:55:19;37.40;;;24.17;;
41709;SDS011;59402;48.396;-4.472;2023-02-15T07:57:46;36.03;;;23.30;;
41709;SDS011;59402;48.396;-4.472;2023-02-15T08:00:13;38.17;;;24.02;;
41709;SDS011;59402;48.396;-4.472;2023-02-15T08:02:40;37.53;;;22.83;;
41709;SDS011;59402;48.396;-4.472;2023-02-15T08:05:06;33.92;;;22.42;;
41709;SDS011;59402;48.396;-4.472;2023-02-15T08:07:32;36.40;;;23.33;;
41709;SDS011;59402;48.396;-4.472;2023-02-15T08:09:57;33.78;;;21.95;;
41709;SDS011;59402;48.396;-4.472;2023-02-15T08:12:27;32.50;;;22.38;;
41709;SDS011;59402;48.396;-4.472;2023-02-15T08:14:53;35.85;;;21.55;;
41709;SDS011;59402;48.396;-4.472;2023-02-15T08:17:19;37.78;;;22.20;;
41709;SDS011;59402;48.396;-4.472;2023-02-15T08:19:44;35.90;;;22.15;;
41709;SDS011;59402;48.396;-4.472;2023-02-15T08:22:12;37.03;;;21.63;;
41709;SDS011;59402;48.396;-4.472;2023-02-15T08:24:39;39.33;;;22.05;;
41709;SDS011;59402;48.396;-4.472;2023-02-15T08:27:06;32.57;;;21.07;;
41709;SDS011;59402;48.396;-4.472;2023-02-15T08:29:33;33.72;;;21.10;;
41709;SDS011;59402;48.396;-4.472;2023-02-15T08:32:01;31.58;;;21.60;;
41709;SDS011;59402;48.396;-4.472;2023-02-15T08:34:29;34.45;;;21.30;;
41709;SDS011;59402;48.396;-4.472;2023-02-15T08:36:57;32.67;;;21.58;;
41709;SDS011;59402;48.396;-4.472;2023-02-15T08:39:22;33.20;;;22.10;;
41709;SDS011;59402;48.396;-4.472;2023-02-15T08:41:48;30.63;;;21.02;;
41709;SDS011;59402;48.396;-4.472;2023-02-15T08:44:15;34.58;;;20.88;;
41709;SDS011;59402;48.396;-4.472;2023-02-15T08:46:43;33.00;;;20.02;;
41709;SDS011;59402;48.396;-4.472;2023-02-15T08:49:17;34.58;;;22.33;;
41709;SDS011;59402;48.396;-4.472;2023-02-15T08:51:44;32.53;;;20.38;;
41709;SDS011;59402;48.396;-4.472;2023-02-15T08:54:15;33.45;;;19.58;;
41709;SDS011;59402;48.396;-4.472;2023-02-15T08:56:43;30.83;;;19.33;;
41709;SDS011;59402;48.396;-4.472;2023-02-15T08:59:14;27.57;;;18.83;;
41709;SDS011;59402;48.396;-4.472;2023-02-15T09:01:44;27.15;;;18.58;;
41709;SDS011;59402;48.396;-4.472;2023-02-15T09:04:10;29.58;;;18.67;;
41709;SDS011;59402;48.396;-4.472;2023-02-15T09:06:37;30.65;;;18.45;;
41709;SDS011;59402;48.396;-4.472;2023-02-15T09:09:04;27.15;;;17.55;;
41709;SDS011;59402;48.396;-4.472;2023-02-15T09:11:30;33.05;;;18.50;;
41709;SDS011;59402;48.396;-4.472;2023-02-15T09:14:06;26.25;;;17.67;;
41709;SDS011;59402;48.396;-4.472;2023-02-15T09:16:38;25.98;;;17.45;;
41709;SDS011;59402;48.396;-4.472;2023-02-15T09:19:04;29.15;;;18.15;;
41709;SDS011;59402;48.396;-4.472;2023-02-15T09:21:31;26.88;;;17.20;;
41709;SDS011;59402;48.396;-4.472;2023-02-15T09:23:59;26.92;;;16.65;;
41709;SDS011;59402;48.396;-4.472;2023-02-15T09:26:27;29.98;;;17.15;;
41709;SDS011;59402;48.396;-4.472;2023-02-15T09:28:55;28.63;;;17.45;;
41709;SDS011;59402;48.396;-4.472;2023-02-15T09:31:23;25.88;;;16.40;;
41709;SDS011;59402;48.396;-4.472;2023-02-15T09:33:50;22.02;;;16.20;;
41709;SDS011;59402;48.396;-4.472;2023-02-15T09:36:20;30.02;;;17.00;;
41709;SDS011;59402;48.396;-4.472;2023-02-15T09:38:50;27.33;;;17.08;;
41709;SDS011;59402;48.396;-4.472;2023-02-15T09:41:30;26.35;;;16.50;;
41709;SDS011;59402;48.396;-4.472;2023-02-15T10:02:55;24.02;;;16.13;;
41709;SDS011;59402;48.396;-4.472;2023-02-15T10:11:17;25.83;;;16.70;;
41709;SDS011;59402;48.396;-4.472;2023-02-15T10:14:10;23.52;;;15.85;;
41709;SDS011;59402;48.396;-4.472;2023-02-15T10:17:02;22.63;;;15.23;;
41709;SDS011;59402;48.396;-4.472;2023-02-15T10:28:19;24.15;;;15.75;;
41709;SDS011;59402;48.396;-4.472;2023-02-15T10:30:50;23.30;;;15.27;;
41709;SDS011;59402;48.396;-4.472;2023-02-15T10:35:51;23.13;;;14.80;;
41709;SDS011;59402;48.396;-4.472;2023-02-15T10:50:12;21.52;;;13.30;;
41709;SDS011;59402;48.396;-4.472;2023-02-15T10:52:50;22.77;;;14.10;;
41709;SDS011;59402;48.396;-4.472;2023-02-15T10:55:42;18.77;;;11.95;;
41709;SDS011;59402;48.396;-4.472;2023-02-15T11:09:49;24.15;;;12.50;;
41709;SDS011;59402;48.396;-4.472;2023-02-15T11:12:20;23.67;;;11.85;;
41709;SDS011;59402;48.396;-4.472;2023-02-15T11:15:30;23.15;;;11.70;;
41709;SDS011;59402;48.396;-4.472;2023-02-15T11:17:45;16.67;;;11.25;;
41709;SDS011;59402;48.396;-4.472;2023-02-15T11:20:19;19.10;;;12.60;;
41709;SDS011;59402;48.396;-4.472;2023-02-15T11:22:58;23.50;;;11.98;;
41709;SDS011;59402;48.396;-4.472;2023-02-15T11:25:26;19.95;;;11.20;;
41709;SDS011;59402;48.396;-4.472;2023-02-15T11:27:57;18.48;;;11.52;;
41709;SDS011;59402;48.396;-4.472;2023-02-15T11:30:28;17.63;;;11.90;;
41709;SDS011;59402;48.396;-4.472;2023-02-15T11:33:03;18.05;;;10.57;;
41709;SDS011;59402;48.396;-4.472;2023-02-15T11:35:42;21.35;;;11.82;;
41709;SDS011;59402;48.396;-4.472;2023-02-15T11:38:22;20.33;;;12.68;;
41709;SDS011;59402;48.396;-4.472;2023-02-15T11:40:52;19.55;;;11.32;;
41709;SDS011;59402;48.396;-4.472;2023-02-15T11:43:44;21.42;;;12.43;;
41709;SDS011;59402;48.396;-4.472;2023-02-15T11:46:14;22.35;;;12.00;;
41709;SDS011;59402;48.396;-4.472;2023-02-15T11:48:40;21.42;;;11.70;;
41709;SDS011;59402;48.396;-4.472;2023-02-15T11:51:17;19.40;;;11.32;;
41709;SDS011;59402;48.396;-4.472;2023-02-15T11:56:14;15.35;;;10.30;;
41709;SDS011;59402;48.396;-4.472;2023-02-15T12:01:31;19.83;;;11.48;;
41709;SDS011;59402;48.396;-4.472;2023-02-15T12:06:51;18.70;;;11.52;;
41709;SDS011;59402;48.396;-4.472;2023-02-15T12:09:26;19.17;;;11.65;;
41709;SDS011;59402;48.396;-4.472;2023-02-15T12:11:55;18.08;;;10.73;;
41709;SDS011;59402;48.396;-4.472;2023-02-15T12:14:57;19.52;;;12.35;;
41709;SDS011;59402;48.396;-4.472;2023-02-15T12:17:26;20.73;;;11.27;;
41709;SDS011;59402;48.396;-4.472;2023-02-15T12:19:54;26.52;;;12.55;;
41709;SDS011;59402;48.396;-4.472;2023-02-15T12:22:26;21.65;;;12.60;;
41709;SDS011;59402;48.396;-4.472;2023-02-15T12:25:01;23.27;;;12.57;;
41709;SDS011;59402;48.396;-4.472;2023-02-15T12:27:30;23.90;;;13.05;;
41709;SDS011;59402;48.396;-4.472;2023-02-15T12:30:04;20.60;;;12.73;;
41709;SDS011;59402;48.396;-4.472;2023-02-15T12:32:58;24.10;;;12.52;;
41709;SDS011;59402;48.396;-4.472;2023-02-15T12:35:29;19.33;;;12.43;;
41709;SDS011;59402;48.396;-4.472;2023-02-15T12:37:56;21.77;;;13.38;;
41709;SDS011;59402;48.396;-4.472;2023-02-15T12:40:29;19.95;;;12.50;;
41709;SDS011;59402;48.396;-4.472;2023-02-15T12:42:55;24.33;;;12.80;;
41709;SDS011;59402;48.396;-4.472;2023-02-15T12:50:37;18.98;;;11.45;;
41709;SDS011;59402;48.396;-4.472;2023-02-15T12:56:05;17.88;;;10.77;;
41709;SDS011;59402;48.396;-4.472;2023-02-15T12:58:39;17.60;;;10.73;;
41709;SDS011;59402;48.396;-4.472;2023-02-15T13:03:34;19.98;;;9.63;;
41709;SDS011;59402;48.396;-4.472;2023-02-15T13:06:01;13.85;;;7.90;;
41709;SDS011;59402;48.396;-4.472;2023-02-15T13:08:33;16.75;;;6.78;;
41709;SDS011;59402;48.396;-4.472;2023-02-15T13:13:33;17.55;;;7.43;;
41709;SDS011;59402;48.396;-4.472;2023-02-15T13:16:10;20.05;;;7.47;;
41709;SDS011;59402;48.396;-4.472;2023-02-15T13:18:38;16.15;;;6.00;;
41709;SDS011;59402;48.396;-4.472;2023-02-15T13:21:09;14.15;;;5.45;;
41709;SDS011;59402;48.396;-4.472;2023-02-15T13:23:38;15.68;;;5.90;;
41709;SDS011;59402;48.396;-4.472;2023-02-15T13:26:05;18.08;;;6.85;;
41709;SDS011;59402;48.396;-4.472;2023-02-15T13:28:46;14.00;;;5.72;;
41709;SDS011;59402;48.396;-4.472;2023-02-15T13:31:20;12.43;;;5.85;;
41709;SDS011;59402;48.396;-4.472;2023-02-15T13:34:09;15.68;;;6.45;;
41709;SDS011;59402;48.396;-4.472;2023-02-15T13:59:28;12.70;;;6.07;;
41709;SDS011;59402;48.396;-4.472;2023-02-15T14:07:47;18.30;;;7.07;;
41709;SDS011;59402;48.396;-4.472;2023-02-15T14:10:42;13.27;;;5.88;;
41709;SDS011;59402;48.396;-4.472;2023-02-15T14:21:54;17.95;;;5.75;;
41709;SDS011;59402;48.396;-4.472;2023-02-15T14:24:30;11.90;;;5.20;;
41709;SDS011;59402;48.396;-4.472;2023-02-15T14:27:24;11.80;;;5.40;;
41709;SDS011;59402;48.396;-4.472;2023-02-15T14:30:15;17.17;;;5.78;;
41709;SDS011;59402;48.396;-4.472;2023-02-15T14:32:46;17.45;;;6.00;;
41709;SDS011;59402;48.396;-4.472;2023-02-15T14:35:16;17.70;;;6.68;;
41709;SDS011;59402;48.396;-4.472;2023-02-15T14:49:15;15.90;;;6.45;;
41709;SDS011;59402;48.396;-4.472;2023-02-15T14:59:50;15.90;;;7.63;;
41709;SDS011;59402;48.396;-4.472;2023-02-15T15:04:59;18.60;;;7.55;;
41709;SDS011;59402;48.396;-4.472;2023-02-15T15:12:43;22.55;;;9.30;;
41709;SDS011;59402;48.396;-4.472;2023-02-15T15:29:09;18.63;;;8.07;;
41709;SDS011;59402;48.396;-4.472;2023-02-15T15:31:52;20.92;;;7.85;;
41709;SDS011;59402;48.396;-4.472;2023-02-15T15:42:30;15.55;;;7.18;;
41709;SDS011;59402;48.396;-4.472;2023-02-15T15:47:58;14.85;;;6.32;;
41709;SDS011;59402;48.396;-4.472;2023-02-15T15:50:48;19.83;;;7.00;;
41709;SDS011;59402;48.396;-4.472;2023-02-15T15:53:20;15.85;;;7.22;;
41709;SDS011;59402;48.396;-4.472;2023-02-15T15:55:49;17.98;;;7.20;;
41709;SDS011;59402;48.396;-4.472;2023-02-15T15:58:19;23.00;;;7.05;;
41709;SDS011;59402;48.396;-4.472;2023-02-15T16:00:51;20.45;;;7.00;;
41709;SDS011;59402;48.396;-4.472;2023-02-15T16:03:24;17.35;;;6.35;;
41709;SDS011;59402;48.396;-4.472;2023-02-15T16:05:52;19.17;;;7.68;;
41709;SDS011;59402;48.396;-4.472;2023-02-15T16:08:31;16.42;;;7.28;;
41709;SDS011;59402;48.396;-4.472;2023-02-15T16:11:09;15.95;;;7.25;;
41709;SDS011;59402;48.396;-4.472;2023-02-15T16:13:40;18.67;;;7.00;;
41709;SDS011;59402;48.396;-4.472;2023-02-15T16:16:06;15.45;;;6.85;;
41709;SDS011;59402;48.396;-4.472;2023-02-15T16:18:32;21.58;;;8.13;;
41709;SDS011;59402;48.396;-4.472;2023-02-15T16:21:01;21.45;;;8.30;;
41709;SDS011;59402;48.396;-4.472;2023-02-15T16:28:34;19.90;;;7.60;;
41709;SDS011;59402;48.396;-4.472;2023-02-15T16:31:06;26.05;;;8.35;;
41709;SDS011;59402;48.396;-4.472;2023-02-15T16:33:37;28.43;;;8.80;;
41709;SDS011;59402;48.396;-4.472;2023-02-15T16:36:04;29.50;;;9.65;;
41709;SDS011;59402;48.396;-4.472;2023-02-15T16:41:11;29.77;;;9.02;;
41709;SDS011;59402;48.396;-4.472;2023-02-15T16:44:05;27.27;;;9.32;;
41709;SDS011;59402;48.396;-4.472;2023-02-15T16:46:37;33.72;;;9.85;;
41709;SDS011;59402;48.396;-4.472;2023-02-15T16:49:08;26.08;;;8.90;;
41709;SDS011;59402;48.396;-4.472;2023-02-15T16:51:41;28.25;;;9.35;;
41709;SDS011;59402;48.396;-4.472;2023-02-15T16:54:14;23.52;;;8.70;;
41709;SDS011;59402;48.396;-4.472;2023-02-15T16:56:42;23.90;;;8.57;;
41709;SDS011;59402;48.396;-4.472;2023-02-15T16:59:14;27.55;;;8.18;;
41709;SDS011;59402;48.396;-4.472;2023-02-15T17:01:52;24.95;;;8.40;;
41709;SDS011;59402;48.396;-4.472;2023-02-15T17:07:04;26.33;;;8.63;;
41709;SDS011;59402;48.396;-4.472;2023-02-15T17:09:54;32.88;;;9.50;;
41709;SDS011;59402;48.396;-4.472;2023-02-15T17:18:22;25.48;;;9.27;;
41709;SDS011;59402;48.396;-4.472;2023-02-15T17:20:47;21.05;;;8.35;;
41709;SDS011;59402;48.396;-4.472;2023-02-15T17:23:20;25.77;;;8.48;;
41709;SDS011;59402;48.396;-4.472;2023-02-15T17:26:20;29.95;;;8.85;;
41709;SDS011;59402;48.396;-4.472;2023-02-15T17:28:52;31.20;;;9.68;;
41709;SDS011;59402;48.396;-4.472;2023-02-15T17:31:21;29.30;;;9.63;;
41709;SDS011;59402;48.396;-4.472;2023-02-15T17:33:51;35.72;;;10.52;;
41709;SDS011;59402;48.396;-4.472;2023-02-15T17:36:20;29.88;;;9.75;;
41709;SDS011;59402;48.396;-4.472;2023-02-15T17:41:25;28.75;;;10.40;;
41709;SDS011;59402;48.396;-4.472;2023-02-15T17:43:53;34.50;;;11.90;;
41709;SDS011;59402;48.396;-4.472;2023-02-15T17:46:19;32.10;;;11.93;;
41709;SDS011;59402;48.396;-4.472;2023-02-15T17:48:48;40.08;;;14.27;;
41709;SDS011;59402;48.396;-4.472;2023-02-15T17:51:18;35.33;;;10.35;;
41709;SDS011;59402;48.396;-4.472;2023-02-15T17:53:45;28.30;;;12.10;;
41709;SDS011;59402;48.396;-4.472;2023-02-15T17:56:30;27.20;;;11.27;;
41709;SDS011;59402;48.396;-4.472;2023-02-15T17:58:57;30.70;;;11.30;;
41709;SDS011;59402;48.396;-4.472;2023-02-15T18:01:22;34.58;;;12.95;;
41709;SDS011;59402;48.396;-4.472;2023-02-15T18:04:13;28.17;;;11.63;;
41709;SDS011;59402;48.396;-4.472;2023-02-15T18:06:59;41.17;;;13.15;;
41709;SDS011;59402;48.396;-4.472;2023-02-15T18:09:43;31.23;;;11.90;;
41709;SDS011;59402;48.396;-4.472;2023-02-15T18:12:29;22.23;;;10.68;;
41709;SDS011;59402;48.396;-4.472;2023-02-15T18:14:59;29.83;;;12.65;;
41709;SDS011;59402;48.396;-4.472;2023-02-15T18:17:35;27.45;;;12.40;;
41709;SDS011;59402;48.396;-4.472;2023-02-15T18:20:06;38.08;;;18.27;;
41709;SDS011;59402;48.396;-4.472;2023-02-15T18:25:19;38.20;;;14.55;;
41709;SDS011;59402;48.396;-4.472;2023-02-15T18:27:46;46.22;;;13.75;;
41709;SDS011;59402;48.396;-4.472;2023-02-15T18:30:19;45.90;;;14.10;;
41709;SDS011;59402;48.396;-4.472;2023-02-15T18:32:47;27.58;;;13.13;;
41709;SDS011;59402;48.396;-4.472;2023-02-15T18:35:18;38.88;;;14.80;;